createdAt,value
2019-05-03T00:00:31.932Z,965.74
2019-05-03T00:01:32.436Z,965.79
2019-05-03T00:02:32.365Z,965.85
2019-05-03T00:03:32.032Z,965.78
2019-05-03T00:04:31.660Z,965.78
2019-05-03T00:05:32.492Z,965.82
2019-05-03T00:06:32.067Z,965.84
2019-05-03T00:07:31.741Z,965.81
2019-05-03T00:08:33.242Z,965.83
2019-05-03T00:09:32.015Z,965.90
2019-05-03T00:10:31.781Z,965.83
2019-05-03T00:11:32.697Z,965.87
2019-05-03T00:12:32.731Z,965.90
2019-05-03T00:13:32.541Z,965.86
2019-05-03T00:14:32.479Z,965.81
2019-05-03T00:15:32.327Z,965.95
2019-05-03T00:16:32.511Z,965.93
2019-05-03T00:17:32.471Z,965.93
2019-05-03T00:18:32.754Z,965.91
2019-05-03T00:19:32.749Z,965.99
2019-05-03T00:20:32.673Z,965.94
2019-05-03T00:21:32.686Z,965.99
2019-05-03T00:22:32.339Z,965.98
2019-05-03T00:23:41.767Z,966.05
2019-05-03T00:24:32.108Z,966.03
2019-05-03T00:25:32.653Z,965.99
2019-05-03T00:26:31.827Z,966.05
2019-05-03T00:27:32.257Z,966.02
2019-05-03T00:28:32.173Z,966.06
2019-05-03T00:29:32.557Z,966.12
2019-05-03T00:30:32.015Z,966.09
2019-05-03T00:31:31.870Z,966.03
2019-05-03T00:32:32.056Z,966.07
2019-05-03T00:33:31.764Z,966.08
2019-05-03T00:34:32.405Z,966.08
2019-05-03T00:35:31.945Z,966.05
2019-05-03T00:36:32.682Z,966.10
2019-05-03T00:37:32.648Z,966.06
2019-05-03T00:38:32.515Z,966.04
2019-05-03T00:39:32.543Z,966.10
2019-05-03T00:40:32.379Z,966.05
2019-05-03T00:41:31.992Z,966.08
2019-05-03T00:42:31.784Z,966.11
2019-05-03T00:43:31.790Z,966.18
2019-05-03T00:44:31.736Z,966.08
2019-05-03T00:45:31.595Z,966.06
2019-05-03T00:46:32.620Z,966.17
2019-05-03T00:47:32.711Z,966.11
2019-05-03T00:48:32.528Z,966.14
2019-05-03T00:49:32.086Z,966.15
2019-05-03T00:50:32.122Z,966.15
2019-05-03T00:51:31.799Z,966.17
2019-05-03T00:52:31.833Z,966.13
2019-05-03T00:53:31.770Z,966.13
2019-05-03T00:54:42.908Z,966.18
2019-05-03T00:55:32.605Z,966.20
2019-05-03T00:56:32.150Z,966.21
2019-05-03T00:57:32.323Z,966.25
2019-05-03T00:58:31.796Z,966.19
2019-05-03T00:59:32.509Z,966.20
2019-05-03T01:00:32.300Z,966.21
2019-05-03T01:01:32.059Z,966.18
2019-05-03T01:02:31.898Z,966.19
2019-05-03T01:03:32.417Z,966.22
2019-05-03T01:04:31.769Z,966.25
2019-05-03T01:05:30.573Z,966.20
2019-05-03T01:06:31.808Z,966.31
2019-05-03T01:07:31.858Z,966.31
2019-05-03T01:08:32.524Z,966.29
2019-05-03T01:09:31.722Z,966.26
2019-05-03T01:10:30.527Z,966.30
2019-05-03T01:11:32.304Z,966.32
2019-05-03T01:12:32.204Z,966.34
2019-05-03T01:13:32.040Z,966.30
2019-05-03T01:14:31.675Z,966.30
2019-05-03T01:15:31.965Z,966.32
2019-05-03T01:16:31.824Z,966.39
2019-05-03T01:17:31.698Z,966.37
2019-05-03T01:18:32.294Z,966.38
2019-05-03T01:19:32.041Z,966.36
2019-05-03T01:20:31.984Z,966.41
2019-05-03T01:21:31.701Z,966.48
2019-05-03T01:22:32.171Z,966.42
2019-05-03T01:23:32.463Z,966.43
2019-05-03T01:24:32.172Z,966.38
2019-05-03T01:25:42.752Z,966.43
2019-05-03T01:26:31.920Z,966.43
2019-05-03T01:27:32.378Z,966.45
2019-05-03T01:28:32.182Z,966.49
2019-05-03T01:29:32.086Z,966.49
2019-05-03T01:30:32.079Z,966.55
2019-05-03T01:31:31.909Z,966.50
2019-05-03T01:32:30.260Z,966.49
2019-05-03T01:33:32.073Z,966.53
2019-05-03T01:34:32.428Z,966.55
2019-05-03T01:35:32.157Z,966.59
2019-05-03T01:36:32.014Z,966.54
2019-05-03T01:37:31.913Z,966.54
2019-05-03T01:38:31.888Z,966.54
2019-05-03T01:39:31.657Z,966.56
2019-05-03T01:40:30.227Z,966.61
2019-05-03T01:41:32.213Z,966.65
2019-05-03T01:42:32.034Z,966.62
2019-05-03T01:43:31.705Z,966.59
2019-05-03T01:44:30.139Z,966.65
2019-05-03T01:45:31.865Z,966.63
2019-05-03T01:46:31.618Z,966.58
2019-05-03T01:47:30.106Z,966.65
2019-05-03T01:48:32.094Z,966.62
2019-05-03T01:49:31.959Z,966.65
2019-05-03T01:50:31.907Z,966.66
2019-05-03T01:51:30.059Z,966.60
2019-05-03T01:52:30.100Z,966.59
2019-05-03T01:53:30.038Z,966.66
2019-05-03T01:54:32.010Z,966.62
2019-05-03T01:55:41.837Z,966.62
2019-05-03T01:56:46.009Z,966.64
2019-05-03T01:57:32.472Z,966.62
2019-05-03T01:58:29.980Z,966.65
2019-05-03T01:59:31.902Z,966.67
2019-05-03T02:00:31.797Z,966.72
2019-05-03T02:01:31.588Z,966.68
2019-05-03T02:02:29.946Z,966.71
2019-05-03T02:03:29.980Z,966.68
2019-05-03T02:04:29.929Z,966.73
2019-05-03T02:05:31.911Z,966.70
2019-05-03T02:06:31.773Z,966.71
2019-05-03T02:07:31.220Z,966.76
2019-05-03T02:08:29.878Z,966.75
2019-05-03T02:09:29.923Z,966.71
2019-05-03T02:10:29.858Z,966.78
2019-05-03T02:11:29.852Z,966.79
2019-05-03T02:12:29.830Z,966.80
2019-05-03T02:13:29.823Z,966.82
2019-05-03T02:14:31.671Z,966.84
2019-05-03T02:15:29.860Z,966.82
2019-05-03T02:16:29.796Z,966.78
2019-05-03T02:17:31.807Z,966.81
2019-05-03T02:18:31.698Z,966.87
2019-05-03T02:19:29.761Z,966.83
2019-05-03T02:20:29.754Z,966.86
2019-05-03T02:21:29.786Z,966.93
2019-05-03T02:22:29.728Z,966.89
2019-05-03T02:23:31.829Z,966.94
2019-05-03T02:24:29.702Z,966.87
2019-05-03T02:25:29.698Z,966.91
2019-05-03T02:26:31.682Z,966.93
2019-05-03T02:27:42.243Z,966.96
2019-05-03T02:28:29.662Z,966.96
2019-05-03T02:29:29.652Z,966.97
2019-05-03T02:30:32.902Z,966.95
2019-05-03T02:31:32.535Z,967.02
2019-05-03T02:32:29.632Z,967.04
2019-05-03T02:33:29.687Z,967.03
2019-05-03T02:34:32.466Z,966.97
2019-05-03T02:35:29.598Z,966.97
2019-05-03T02:36:29.582Z,966.96
2019-05-03T02:37:29.566Z,966.99
2019-05-03T02:38:29.552Z,967.00
2019-05-03T02:39:29.561Z,966.99
2019-05-03T02:40:29.547Z,967.04
2019-05-03T02:41:29.524Z,967.02
2019-05-03T02:42:29.514Z,967.07
2019-05-03T02:43:29.508Z,967.02
2019-05-03T02:44:29.490Z,967.04
2019-05-03T02:45:29.527Z,967.05
2019-05-03T02:46:29.492Z,967.11
2019-05-03T02:47:29.460Z,967.16
2019-05-03T02:48:29.451Z,967.20
2019-05-03T02:49:29.449Z,967.17
2019-05-03T02:50:29.431Z,967.20
2019-05-03T02:51:29.459Z,967.17
2019-05-03T02:52:29.411Z,967.12
2019-05-03T02:53:29.401Z,967.13
2019-05-03T02:54:29.385Z,967.12
2019-05-03T02:55:29.372Z,967.12
2019-05-03T02:56:29.359Z,967.19
2019-05-03T02:57:29.386Z,967.21
2019-05-03T02:58:41.747Z,967.16
2019-05-03T02:59:29.329Z,967.24
2019-05-03T03:00:29.366Z,967.20
2019-05-03T03:01:29.323Z,967.24
2019-05-03T03:02:29.296Z,967.23
2019-05-03T03:03:29.296Z,967.26
2019-05-03T03:04:29.285Z,967.28
2019-05-03T03:05:29.268Z,967.25
2019-05-03T03:06:29.258Z,967.28
2019-05-03T03:07:29.261Z,967.31
2019-05-03T03:08:32.827Z,967.33
2019-05-03T03:09:29.235Z,967.39
2019-05-03T03:10:29.209Z,967.23
2019-05-03T03:11:29.205Z,967.31
2019-05-03T03:12:29.201Z,967.37
2019-05-03T03:13:29.221Z,967.45
2019-05-03T03:14:29.175Z,967.41
2019-05-03T03:15:29.187Z,967.41
2019-05-03T03:16:29.150Z,967.42
2019-05-03T03:17:29.136Z,967.47
2019-05-03T03:18:29.919Z,967.53
2019-05-03T03:19:29.159Z,967.50
2019-05-03T03:20:29.108Z,967.57
2019-05-03T03:21:29.097Z,967.60
2019-05-03T03:22:29.093Z,967.62
2019-05-03T03:23:29.074Z,967.63
2019-05-03T03:24:29.088Z,967.63
2019-05-03T03:25:29.110Z,967.64
2019-05-03T03:26:37.210Z,967.68
2019-05-03T03:27:30.042Z,967.74
2019-05-03T03:28:29.024Z,967.72
2019-05-03T03:29:39.529Z,967.75
2019-05-03T03:30:29.850Z,967.72
2019-05-03T03:31:29.135Z,967.77
2019-05-03T03:32:29.900Z,967.75
2019-05-03T03:33:28.977Z,967.79
2019-05-03T03:34:28.970Z,967.76
2019-05-03T03:35:38.095Z,967.79
2019-05-03T03:36:44.790Z,967.83
2019-05-03T03:37:29.920Z,967.81
2019-05-03T03:38:28.909Z,967.83
2019-05-03T03:39:28.918Z,967.91
2019-05-03T03:40:28.893Z,967.95
2019-05-03T03:41:28.884Z,967.92
2019-05-03T03:42:28.879Z,967.96
2019-05-03T03:43:28.876Z,968.02
2019-05-03T03:44:28.857Z,968.03
2019-05-03T03:45:28.838Z,968.03
2019-05-03T03:46:32.062Z,968.05
2019-05-03T03:47:28.835Z,968.09
2019-05-03T03:48:28.816Z,968.07
2019-05-03T03:49:28.808Z,968.16
2019-05-03T03:50:28.784Z,968.17
2019-05-03T03:51:28.778Z,968.12
2019-05-03T03:52:28.777Z,968.14
2019-05-03T03:53:28.791Z,968.16
2019-05-03T03:54:28.740Z,968.15
2019-05-03T03:55:28.733Z,968.17
2019-05-03T03:56:28.716Z,968.18
2019-05-03T03:57:28.705Z,968.18
2019-05-03T03:58:28.695Z,968.17
2019-05-03T03:59:28.729Z,968.26
2019-05-03T04:00:28.694Z,968.23
2019-05-03T04:01:28.669Z,968.27
2019-05-03T04:02:28.661Z,968.25
2019-05-03T04:03:28.650Z,968.29
2019-05-03T04:04:28.633Z,968.31
2019-05-03T04:05:28.667Z,968.30
2019-05-03T04:06:38.879Z,968.30
2019-05-03T04:07:28.605Z,968.39
2019-05-03T04:08:28.601Z,968.30
2019-05-03T04:09:28.581Z,968.38
2019-05-03T04:10:28.570Z,968.41
2019-05-03T04:11:28.609Z,968.43
2019-05-03T04:12:28.546Z,968.42
2019-05-03T04:13:28.546Z,968.46
2019-05-03T04:14:28.531Z,968.45
2019-05-03T04:15:28.516Z,968.47
2019-05-03T04:16:28.502Z,968.49
2019-05-03T04:17:28.499Z,968.53
2019-05-03T04:18:28.498Z,968.51
2019-05-03T04:19:28.469Z,968.52
2019-05-03T04:20:28.466Z,968.53
2019-05-03T04:21:28.455Z,968.55
2019-05-03T04:22:28.473Z,968.45
2019-05-03T04:23:28.430Z,968.59
2019-05-03T04:24:28.443Z,968.72
2019-05-03T04:25:28.444Z,968.61
2019-05-03T04:26:29.900Z,968.73
2019-05-03T04:27:28.382Z,968.67
2019-05-03T04:28:28.392Z,968.67
2019-05-03T04:29:28.369Z,968.71
2019-05-03T04:30:28.359Z,968.85
2019-05-03T04:31:28.359Z,968.77
2019-05-03T04:32:29.083Z,968.78
2019-05-03T04:33:28.350Z,968.82
2019-05-03T04:34:28.322Z,968.85
2019-05-03T04:35:28.305Z,968.91
2019-05-03T04:36:28.303Z,969.02
2019-05-03T04:37:40.980Z,968.92
2019-05-03T04:38:28.274Z,968.99
2019-05-03T04:39:28.329Z,968.96
2019-05-03T04:40:28.246Z,969.08
2019-05-03T04:41:28.244Z,969.00
2019-05-03T04:42:28.225Z,969.05
2019-05-03T04:43:28.220Z,969.02
2019-05-03T04:44:28.209Z,969.07
2019-05-03T04:45:28.201Z,969.16
2019-05-03T04:46:28.182Z,969.09
2019-05-03T04:47:28.182Z,969.16
2019-05-03T04:48:28.188Z,969.12
2019-05-03T04:49:28.162Z,969.13
2019-05-03T04:50:28.207Z,969.21
2019-05-03T04:51:28.129Z,969.15
2019-05-03T04:52:28.123Z,969.18
2019-05-03T04:53:28.119Z,969.21
2019-05-03T04:54:28.093Z,969.22
2019-05-03T04:55:28.081Z,969.20
2019-05-03T04:56:28.116Z,969.24
2019-05-03T04:57:40.043Z,969.31
2019-05-03T04:58:29.067Z,969.35
2019-05-03T04:59:28.098Z,969.39
2019-05-03T05:00:28.121Z,969.24
2019-05-03T05:01:28.029Z,969.26
2019-05-03T05:02:28.057Z,969.31
2019-05-03T05:03:36.090Z,969.30
2019-05-03T05:04:28.272Z,969.25
2019-05-03T05:05:28.009Z,969.34
2019-05-03T05:06:28.153Z,969.31
2019-05-03T05:08:46.043Z,969.36
2019-05-03T05:09:45.637Z,969.42
2019-05-03T05:10:45.487Z,969.41
2019-05-03T05:11:45.918Z,969.45
2019-05-03T05:12:45.904Z,969.53
2019-05-03T05:13:45.762Z,969.52
2019-05-03T05:14:45.793Z,969.46
2019-05-03T05:15:46.006Z,969.45
2019-05-03T05:16:55.667Z,969.53
2019-05-03T05:17:45.905Z,969.57
2019-05-03T05:18:45.711Z,969.48
2019-05-03T05:19:44.693Z,969.61
2019-05-03T05:20:45.398Z,969.62
2019-05-03T05:21:44.846Z,969.57
2019-05-03T05:22:45.438Z,969.59
2019-05-03T05:23:44.697Z,969.48
2019-05-03T05:24:45.015Z,969.61
2019-05-03T05:25:44.685Z,969.74
2019-05-03T05:26:44.719Z,969.76
2019-05-03T05:27:51.408Z,969.73
2019-05-03T05:28:45.612Z,969.77
2019-05-03T05:29:45.059Z,969.84
2019-05-03T05:30:44.605Z,969.83
2019-05-03T05:31:44.713Z,969.87
2019-05-03T05:32:45.419Z,969.89
2019-05-03T05:33:44.732Z,969.92
2019-05-03T05:34:46.045Z,969.95
2019-05-03T05:35:44.527Z,969.93
2019-05-03T05:36:45.041Z,970.01
2019-05-03T05:37:44.512Z,970.02
2019-05-03T05:38:45.092Z,970.04
2019-05-03T05:39:44.808Z,970.06
2019-05-03T05:40:45.077Z,970.07
2019-05-03T05:41:45.018Z,969.96
2019-05-03T05:42:45.420Z,970.00
2019-05-03T05:43:54.847Z,970.08
2019-05-03T05:44:45.388Z,970.02
2019-05-03T05:45:44.984Z,970.10
2019-05-03T05:46:45.451Z,970.15
2019-05-03T05:47:44.900Z,970.14
2019-05-03T05:48:45.235Z,970.24
2019-05-03T05:49:44.523Z,970.22
2019-05-03T05:50:44.886Z,970.20
2019-05-03T05:51:44.614Z,970.23
2019-05-03T05:52:44.834Z,970.21
2019-05-03T05:54:25.709Z,970.28
2019-05-03T05:54:46.610Z,970.33
2019-05-03T05:55:44.808Z,970.35
2019-05-03T05:56:44.575Z,970.42
2019-05-03T05:57:45.293Z,970.40
2019-05-03T05:58:45.058Z,970.45
2019-05-03T05:59:45.367Z,970.53
2019-05-03T06:00:44.816Z,970.42
2019-05-03T06:01:45.657Z,970.50
2019-05-03T06:02:44.711Z,970.55
2019-05-03T06:03:44.840Z,970.54
2019-05-03T06:04:45.234Z,970.51
2019-05-03T06:05:45.193Z,970.57
2019-05-03T06:06:45.195Z,970.65
2019-05-03T06:07:44.388Z,970.63
2019-05-03T06:08:44.679Z,970.63
2019-05-03T06:09:44.787Z,970.66
2019-05-03T06:10:45.133Z,970.73
2019-05-03T06:11:45.100Z,970.63
2019-05-03T06:12:45.427Z,970.81
2019-05-03T06:13:44.490Z,970.80
2019-05-03T06:14:45.300Z,970.78
2019-05-03T06:15:44.767Z,970.77
2019-05-03T06:16:45.151Z,970.80
2019-05-03T06:17:45.058Z,970.85
2019-05-03T06:18:45.232Z,970.82
2019-05-03T06:19:44.933Z,970.87
2019-05-03T06:20:45.184Z,970.82
2019-05-03T06:21:44.829Z,970.78
2019-05-03T06:22:44.828Z,971.00
2019-05-03T06:23:45.090Z,970.89
2019-05-03T06:26:06.909Z,970.86
2019-05-03T06:27:05.284Z,970.92
2019-05-03T06:28:17.728Z,970.95
2019-05-03T06:29:06.311Z,971.02
2019-05-03T06:30:05.247Z,971.00
2019-05-03T06:31:05.249Z,971.01
2019-05-03T06:32:05.546Z,971.07
2019-05-03T06:33:05.410Z,971.07
2019-05-03T06:34:05.534Z,971.14
2019-05-03T06:35:05.196Z,971.04
2019-05-03T06:36:05.339Z,971.13
2019-05-03T06:37:06.026Z,971.16
2019-05-03T06:38:05.183Z,971.20
2019-05-03T06:39:08.111Z,971.24
2019-05-03T06:40:06.135Z,971.23
2019-05-03T06:41:15.074Z,971.31
2019-05-03T06:42:10.002Z,971.27
2019-05-03T06:43:09.811Z,971.29
2019-05-03T06:44:06.353Z,971.27
2019-05-03T06:45:10.466Z,971.39
2019-05-03T06:46:06.097Z,971.28
2019-05-03T06:47:07.906Z,971.40
2019-05-03T06:48:06.047Z,971.38
2019-05-03T06:49:07.804Z,971.35
2019-05-03T06:50:05.481Z,971.39
2019-05-03T06:51:10.994Z,971.36
2019-05-03T06:52:05.906Z,971.40
2019-05-03T06:53:12.645Z,971.52
2019-05-03T06:54:06.092Z,971.47
2019-05-03T06:55:09.175Z,971.54
2019-05-03T06:56:06.552Z,971.57
2019-05-03T06:57:30.139Z,971.52
2019-05-03T06:58:05.217Z,971.54
2019-05-03T06:59:05.303Z,971.59
2019-05-03T07:00:05.514Z,971.56
2019-05-03T07:01:04.908Z,971.61
2019-05-03T07:02:05.608Z,971.58
2019-05-03T07:03:05.030Z,971.65
2019-05-03T07:04:05.188Z,971.70
2019-05-03T07:05:05.125Z,971.58
2019-05-03T07:06:14.860Z,971.64
2019-05-03T07:07:05.241Z,971.65
2019-05-03T07:08:05.243Z,971.72
2019-05-03T07:09:05.318Z,971.76
2019-05-03T07:10:05.112Z,971.76
2019-05-03T07:11:05.271Z,971.77
2019-05-03T07:12:15.583Z,971.82
2019-05-03T07:13:05.131Z,971.83
2019-05-03T07:14:05.322Z,971.95
2019-05-03T07:15:05.254Z,971.85
2019-05-03T07:16:04.818Z,971.91
2019-05-03T07:17:05.578Z,971.88
2019-05-03T07:18:05.835Z,971.89
2019-05-03T07:19:05.929Z,971.98
2019-05-03T07:20:04.756Z,972.01
2019-05-03T07:21:05.039Z,971.99
2019-05-03T07:22:05.789Z,971.92
2019-05-03T07:23:04.802Z,971.99
2019-05-03T07:24:05.904Z,972.08
2019-05-03T07:25:04.759Z,972.10
2019-05-03T07:26:05.374Z,972.12
2019-05-03T07:27:05.433Z,972.08
2019-05-03T07:28:04.702Z,972.05
2019-05-03T07:29:05.073Z,972.12
2019-05-03T07:30:04.912Z,972.11
2019-05-03T07:31:05.613Z,972.13
2019-05-03T07:32:05.333Z,972.19
2019-05-03T07:33:05.574Z,972.17
2019-05-03T07:34:05.208Z,972.32
2019-05-03T07:35:04.604Z,972.21
2019-05-03T07:36:05.313Z,972.27
2019-05-03T07:37:05.896Z,972.23
2019-05-03T07:38:05.466Z,972.23
2019-05-03T07:39:05.395Z,972.12
2019-05-03T07:40:05.180Z,972.31
2019-05-03T07:41:05.300Z,972.26
2019-05-03T07:42:05.391Z,972.21
2019-05-03T07:43:18.811Z,972.28
2019-05-03T07:44:12.693Z,972.37
2019-05-03T07:45:04.965Z,972.36
2019-05-03T07:46:05.594Z,972.40
2019-05-03T07:47:04.910Z,972.36
2019-05-03T07:48:04.688Z,972.46
2019-05-03T07:49:05.045Z,972.39
2019-05-03T07:50:05.023Z,972.49
2019-05-03T07:51:05.456Z,972.50
2019-05-03T07:52:05.874Z,972.52
2019-05-03T07:53:04.701Z,972.61
2019-05-03T07:54:04.791Z,972.53
2019-05-03T07:55:04.664Z,972.72
2019-05-03T07:56:05.233Z,972.59
2019-05-03T07:57:14.933Z,972.68
2019-05-03T07:58:04.653Z,972.61
2019-05-03T07:59:06.335Z,972.63
2019-05-03T08:00:05.466Z,972.68
2019-05-03T08:01:08.982Z,972.76
2019-05-03T08:02:05.752Z,972.69
2019-05-03T08:03:05.047Z,972.80
2019-05-03T08:04:05.424Z,972.74
2019-05-03T08:05:06.469Z,972.77
2019-05-03T08:07:20.667Z,972.77
2019-05-03T08:08:11.623Z,972.84
2019-05-03T08:09:19.177Z,972.80
2019-05-03T08:10:10.621Z,972.84
2019-05-03T08:11:10.628Z,972.78
2019-05-03T08:12:10.717Z,972.87
2019-05-03T08:13:10.657Z,972.84
2019-05-03T08:14:10.555Z,972.88
2019-05-03T08:15:10.550Z,972.95
2019-05-03T08:16:10.534Z,972.87
2019-05-03T08:17:10.622Z,973.01
2019-05-03T08:18:10.512Z,972.98
2019-05-03T08:19:10.519Z,973.03
2019-05-03T08:20:10.492Z,973.02
2019-05-03T08:21:10.587Z,973.03
2019-05-03T08:22:10.466Z,973.03
2019-05-03T08:23:23.669Z,973.08
2019-05-03T08:24:11.547Z,973.10
2019-05-03T08:25:10.437Z,973.22
2019-05-03T08:26:10.440Z,973.21
2019-05-03T08:27:10.426Z,973.17
2019-05-03T08:28:10.402Z,973.22
2019-05-03T08:29:16.017Z,973.23
2019-05-03T08:30:11.423Z,973.28
2019-05-03T08:31:10.374Z,973.29
2019-05-03T08:32:10.370Z,973.36
2019-05-03T08:33:10.383Z,973.33
2019-05-03T08:34:10.342Z,973.30
2019-05-03T08:35:10.353Z,973.35
2019-05-03T08:36:10.360Z,973.34
2019-05-03T08:37:10.383Z,973.43
2019-05-03T08:38:10.296Z,973.40
2019-05-03T08:39:10.285Z,973.45
2019-05-03T08:41:30.272Z,973.49
2019-05-03T08:42:30.677Z,973.52
2019-05-03T08:43:30.141Z,973.51
2019-05-03T08:44:30.130Z,973.60
2019-05-03T08:45:30.208Z,973.56
2019-05-03T08:46:30.351Z,973.56
2019-05-03T08:47:30.605Z,973.59
2019-05-03T08:48:30.134Z,973.66
2019-05-03T08:49:30.368Z,973.71
2019-05-03T08:50:30.080Z,973.64
2019-05-03T08:51:30.151Z,973.67
2019-05-03T08:52:30.402Z,973.72
2019-05-03T08:53:30.115Z,973.68
2019-05-03T08:54:30.387Z,973.75
2019-05-03T08:55:31.370Z,973.76
2019-05-03T08:56:30.124Z,973.75
2019-05-03T08:57:29.986Z,973.80
2019-05-03T08:58:30.026Z,973.87
2019-05-03T08:59:32.724Z,973.85
2019-05-03T09:00:30.277Z,973.83
2019-05-03T09:01:30.691Z,973.88
2019-05-03T09:02:30.373Z,973.84
2019-05-03T09:03:32.384Z,973.86
2019-05-03T09:04:37.293Z,973.96
2019-05-03T09:05:30.999Z,973.96
2019-05-03T09:06:29.940Z,974.03
2019-05-03T09:07:29.911Z,974.03
2019-05-03T09:08:30.092Z,974.10
2019-05-03T09:09:30.172Z,974.02
2019-05-03T09:10:30.358Z,974.07
2019-05-03T09:11:38.750Z,974.20
2019-05-03T09:12:38.390Z,974.11
2019-05-03T09:13:30.745Z,974.14
2019-05-03T09:14:41.428Z,974.16
2019-05-03T09:15:30.811Z,974.24
2019-05-03T09:16:29.790Z,974.28
2019-05-03T09:17:29.790Z,974.24
2019-05-03T09:18:29.790Z,974.29
2019-05-03T09:19:29.765Z,974.35
2019-05-03T09:20:32.832Z,974.42
2019-05-03T09:21:29.813Z,974.39
2019-05-03T09:22:29.751Z,974.46
2019-05-03T09:23:29.781Z,974.41
2019-05-03T09:24:29.805Z,974.44
2019-05-03T09:25:29.707Z,974.42
2019-05-03T09:26:29.860Z,974.40
2019-05-03T09:27:30.043Z,974.46
2019-05-03T09:28:30.784Z,974.55
2019-05-03T09:29:40.365Z,974.54
2019-05-03T09:30:30.649Z,974.48
2019-05-03T09:31:29.632Z,974.54
2019-05-03T09:32:29.631Z,974.53
2019-05-03T09:33:29.668Z,974.61
2019-05-03T09:34:29.596Z,974.62
2019-05-03T09:35:33.261Z,974.66
2019-05-03T09:36:30.630Z,974.65
2019-05-03T09:37:29.565Z,974.67
2019-05-03T09:38:29.579Z,974.66
2019-05-03T09:39:29.583Z,974.71
2019-05-03T09:40:29.549Z,974.84
2019-05-03T09:41:38.783Z,974.86
2019-05-03T09:42:29.512Z,974.82
2019-05-03T09:43:29.496Z,974.88
2019-05-03T09:44:29.490Z,974.88
2019-05-03T09:45:29.478Z,974.89
2019-05-03T09:46:29.490Z,974.88
2019-05-03T09:47:29.474Z,974.90
2019-05-03T09:48:29.445Z,974.91
2019-05-03T09:49:29.437Z,974.94
2019-05-03T09:50:29.428Z,974.87
2019-05-03T09:51:29.440Z,974.98
2019-05-03T09:52:29.504Z,974.96
2019-05-03T09:53:29.397Z,975.02
2019-05-03T09:54:29.453Z,975.04
2019-05-03T09:55:29.372Z,975.10
2019-05-03T09:56:29.361Z,975.10
2019-05-03T09:57:29.359Z,975.19
2019-05-03T09:58:29.351Z,975.17
2019-05-03T09:59:29.353Z,975.25
2019-05-03T10:00:29.343Z,975.22
2019-05-03T10:01:29.312Z,975.27
2019-05-03T10:02:29.552Z,975.30
2019-05-03T10:03:29.341Z,975.29
2019-05-03T10:04:29.279Z,975.36
2019-05-03T10:05:29.270Z,975.32
2019-05-03T10:06:29.257Z,975.37
2019-05-03T10:07:29.248Z,975.38
2019-05-03T10:08:29.252Z,975.30
2019-05-03T10:09:29.282Z,975.43
2019-05-03T10:10:29.222Z,975.41
2019-05-03T11:16:35.269Z,976.67
2019-05-03T11:17:34.868Z,976.77
2019-05-03T11:18:34.770Z,976.70
2019-05-03T11:19:34.886Z,976.67
2019-05-03T11:20:34.775Z,976.69
2019-05-03T11:21:34.940Z,976.74
2019-05-03T11:22:35.022Z,976.74
2019-05-03T11:23:34.764Z,976.80
2019-05-03T11:24:35.051Z,976.80
2019-05-03T11:25:34.690Z,976.81
2019-05-03T11:26:35.167Z,976.78
2019-05-03T11:27:35.367Z,976.90
2019-05-03T11:28:35.377Z,976.80
2019-05-03T11:29:35.539Z,976.84
2019-05-03T11:30:35.605Z,976.90
2019-05-03T11:31:35.393Z,976.93
2019-05-03T11:32:35.279Z,976.92
2019-05-03T11:33:35.330Z,976.95
2019-05-03T11:34:35.482Z,976.95
2019-05-03T11:35:35.089Z,976.89
2019-05-03T11:36:34.904Z,976.91
2019-05-03T11:37:34.732Z,977.01
2019-05-03T11:38:34.947Z,976.98
2019-05-03T11:39:34.516Z,977.05
2019-05-03T11:40:34.696Z,977.03
2019-05-03T11:41:35.838Z,976.98
2019-05-03T11:42:35.363Z,977.02
2019-05-03T11:43:34.990Z,977.13
2019-05-03T11:44:36.225Z,977.12
2019-05-03T11:45:35.427Z,977.11
2019-05-03T11:46:46.093Z,977.04
2019-05-03T11:47:34.873Z,977.15
2019-05-03T11:48:34.939Z,977.18
2019-05-03T11:49:34.859Z,977.18
2019-05-03T11:50:34.789Z,977.23
2019-05-03T11:51:35.369Z,977.17
2019-05-03T11:52:35.559Z,977.23
2019-05-03T11:53:35.593Z,977.29
